sensor_id;sensor_type;location;lat;lon;timestamp;P1;durP1;ratioP1;P2;durP2;ratioP2
8952;SDS011;4511;50.890;8.054;2024-02-28T00:01:07;25.13;;;16.93;;
8952;SDS011;4511;50.890;8.054;2024-02-28T00:03:34;23.87;;;16.70;;
8952;SDS011;4511;50.890;8.054;2024-02-28T00:06:01;25.50;;;17.17;;
8952;SDS011;4511;50.890;8.054;2024-02-28T00:08:27;23.43;;;17.10;;
8952;SDS011;4511;50.890;8.054;2024-02-28T00:10:54;23.13;;;16.80;;
8952;SDS011;4511;50.890;8.054;2024-02-28T00:13:21;21.73;;;15.90;;
8952;SDS011;4511;50.890;8.054;2024-02-28T00:15:48;21.80;;;14.80;;
8952;SDS011;4511;50.890;8.054;2024-02-28T00:18:16;22.47;;;15.40;;
8952;SDS011;4511;50.890;8.054;2024-02-28T00:20:44;22.77;;;17.33;;
8952;SDS011;4511;50.890;8.054;2024-02-28T00:23:10;23.30;;;16.63;;
8952;SDS011;4511;50.890;8.054;2024-02-28T00:25:37;22.87;;;14.67;;
8952;SDS011;4511;50.890;8.054;2024-02-28T00:28:04;20.30;;;14.97;;
8952;SDS011;4511;50.890;8.054;2024-02-28T00:30:31;18.20;;;13.70;;
8952;SDS011;4511;50.890;8.054;2024-02-28T00:32:58;20.27;;;14.20;;
8952;SDS011;4511;50.890;8.054;2024-02-28T00:35:26;25.00;;;16.00;;
8952;SDS011;4511;50.890;8.054;2024-02-28T00:37:54;21.50;;;15.37;;
8952;SDS011;4511;50.890;8.054;2024-02-28T00:40:22;20.60;;;14.93;;
8952;SDS011;4511;50.890;8.054;2024-02-28T00:42:50;19.40;;;14.67;;
8952;SDS011;4511;50.890;8.054;2024-02-28T00:45:16;23.40;;;15.73;;
8952;SDS011;4511;50.890;8.054;2024-02-28T00:47:43;23.27;;;15.40;;
8952;SDS011;4511;50.890;8.054;2024-02-28T00:50:10;21.07;;;14.67;;
8952;SDS011;4511;50.890;8.054;2024-02-28T00:52:38;22.30;;;15.93;;
8952;SDS011;4511;50.890;8.054;2024-02-28T00:55:05;21.73;;;15.50;;
8952;SDS011;4511;50.890;8.054;2024-02-28T00:57:32;22.47;;;16.37;;
8952;SDS011;4511;50.890;8.054;2024-02-28T00:59:59;23.13;;;16.67;;
8952;SDS011;4511;50.890;8.054;2024-02-28T01:02:26;24.67;;;16.50;;
8952;SDS011;4511;50.890;8.054;2024-02-28T01:04:52;24.57;;;16.13;;
8952;SDS011;4511;50.890;8.054;2024-02-28T01:07:19;26.10;;;16.90;;
8952;SDS011;4511;50.890;8.054;2024-02-28T01:09:47;32.83;;;18.27;;
8952;SDS011;4511;50.890;8.054;2024-02-28T01:12:14;27.83;;;17.53;;
8952;SDS011;4511;50.890;8.054;2024-02-28T01:14:40;39.13;;;18.90;;
8952;SDS011;4511;50.890;8.054;2024-02-28T01:17:07;49.30;;;19.40;;
8952;SDS011;4511;50.890;8.054;2024-02-28T01:19:34;125.40;;;20.50;;
8952;SDS011;4511;50.890;8.054;2024-02-28T01:22:01;87.43;;;20.43;;
8952;SDS011;4511;50.890;8.054;2024-02-28T01:24:27;89.03;;;19.70;;
8952;SDS011;4511;50.890;8.054;2024-02-28T01:26:55;327.53;;;26.30;;
8952;SDS011;4511;50.890;8.054;2024-02-28T01:29:22;213.33;;;23.93;;
8952;SDS011;4511;50.890;8.054;2024-02-28T01:31:49;108.07;;;22.33;;
8952;SDS011;4511;50.890;8.054;2024-02-28T01:34:16;122.90;;;20.47;;
8952;SDS011;4511;50.890;8.054;2024-02-28T01:36:43;393.77;;;29.70;;
8952;SDS011;4511;50.890;8.054;2024-02-28T01:39:10;267.03;;;24.97;;
8952;SDS011;4511;50.890;8.054;2024-02-28T01:41:37;159.87;;;21.43;;
8952;SDS011;4511;50.890;8.054;2024-02-28T01:44:05;141.20;;;24.33;;
8952;SDS011;4511;50.890;8.054;2024-02-28T01:46:31;112.17;;;21.73;;
8952;SDS011;4511;50.890;8.054;2024-02-28T01:48:58;147.60;;;21.63;;
8952;SDS011;4511;50.890;8.054;2024-02-28T01:51:26;133.20;;;22.77;;
8952;SDS011;4511;50.890;8.054;2024-02-28T01:53:53;144.97;;;23.33;;
8952;SDS011;4511;50.890;8.054;2024-02-28T01:56:21;164.83;;;24.13;;
8952;SDS011;4511;50.890;8.054;2024-02-28T01:58:50;175.20;;;23.70;;
8952;SDS011;4511;50.890;8.054;2024-02-28T02:01:18;53.40;;;18.63;;
8952;SDS011;4511;50.890;8.054;2024-02-28T02:03:45;54.77;;;19.73;;
8952;SDS011;4511;50.890;8.054;2024-02-28T02:06:12;68.63;;;20.87;;
8952;SDS011;4511;50.890;8.054;2024-02-28T02:08:39;82.50;;;20.70;;
8952;SDS011;4511;50.890;8.054;2024-02-28T02:11:06;129.70;;;22.13;;
8952;SDS011;4511;50.890;8.054;2024-02-28T02:13:33;69.90;;;20.57;;
8952;SDS011;4511;50.890;8.054;2024-02-28T02:16:00;179.93;;;25.87;;
8952;SDS011;4511;50.890;8.054;2024-02-28T02:18:28;234.23;;;28.83;;
8952;SDS011;4511;50.890;8.054;2024-02-28T02:20:58;380.80;;;30.10;;
8952;SDS011;4511;50.890;8.054;2024-02-28T02:23:30;129.50;;;23.40;;
8952;SDS011;4511;50.890;8.054;2024-02-28T02:25:56;214.83;;;26.90;;
8952;SDS011;4511;50.890;8.054;2024-02-28T02:28:23;225.23;;;27.57;;
8952;SDS011;4511;50.890;8.054;2024-02-28T02:30:50;145.83;;;25.20;;
8952;SDS011;4511;50.890;8.054;2024-02-28T02:33:16;71.27;;;21.40;;
8952;SDS011;4511;50.890;8.054;2024-02-28T02:35:43;111.33;;;24.63;;
8952;SDS011;4511;50.890;8.054;2024-02-28T02:38:10;221.27;;;26.57;;
8952;SDS011;4511;50.890;8.054;2024-02-28T02:40:38;323.87;;;29.73;;
8952;SDS011;4511;50.890;8.054;2024-02-28T02:43:04;315.33;;;29.50;;
8952;SDS011;4511;50.890;8.054;2024-02-28T02:45:31;226.37;;;27.13;;
8952;SDS011;4511;50.890;8.054;2024-02-28T02:47:58;165.40;;;25.80;;
8952;SDS011;4511;50.890;8.054;2024-02-28T02:50:24;264.57;;;30.70;;
8952;SDS011;4511;50.890;8.054;2024-02-28T02:52:51;390.47;;;33.40;;
8952;SDS011;4511;50.890;8.054;2024-02-28T02:55:18;256.53;;;28.40;;
8952;SDS011;4511;50.890;8.054;2024-02-28T02:57:46;308.50;;;27.37;;
8952;SDS011;4511;50.890;8.054;2024-02-28T03:00:13;196.33;;;28.27;;
8952;SDS011;4511;50.890;8.054;2024-02-28T03:02:40;101.97;;;22.40;;
8952;SDS011;4511;50.890;8.054;2024-02-28T03:05:07;196.40;;;25.40;;
8952;SDS011;4511;50.890;8.054;2024-02-28T03:07:33;212.80;;;25.63;;
8952;SDS011;4511;50.890;8.054;2024-02-28T03:09:59;182.33;;;25.03;;
8952;SDS011;4511;50.890;8.054;2024-02-28T03:12:27;349.47;;;26.87;;
8952;SDS011;4511;50.890;8.054;2024-02-28T03:14:55;329.93;;;30.43;;
8952;SDS011;4511;50.890;8.054;2024-02-28T03:17:22;152.63;;;25.33;;
8952;SDS011;4511;50.890;8.054;2024-02-28T03:19:48;286.73;;;27.43;;
8952;SDS011;4511;50.890;8.054;2024-02-28T03:22:15;396.97;;;34.97;;
8952;SDS011;4511;50.890;8.054;2024-02-28T03:24:42;276.80;;;28.23;;
8952;SDS011;4511;50.890;8.054;2024-02-28T03:27:08;343.33;;;28.37;;
8952;SDS011;4511;50.890;8.054;2024-02-28T03:29:35;216.13;;;27.17;;
8952;SDS011;4511;50.890;8.054;2024-02-28T03:32:04;204.70;;;27.10;;
8952;SDS011;4511;50.890;8.054;2024-02-28T03:34:31;286.03;;;30.67;;
8952;SDS011;4511;50.890;8.054;2024-02-28T03:36:57;226.53;;;29.07;;
8952;SDS011;4511;50.890;8.054;2024-02-28T03:39:24;317.20;;;29.70;;
8952;SDS011;4511;50.890;8.054;2024-02-28T03:41:51;298.83;;;30.73;;
8952;SDS011;4511;50.890;8.054;2024-02-28T03:44:17;336.93;;;30.50;;
8952;SDS011;4511;50.890;8.054;2024-02-28T03:46:44;725.90;;;41.50;;
8952;SDS011;4511;50.890;8.054;2024-02-28T03:49:12;331.10;;;29.77;;
8952;SDS011;4511;50.890;8.054;2024-02-28T03:51:39;227.57;;;26.63;;
8952;SDS011;4511;50.890;8.054;2024-02-28T03:54:06;146.73;;;24.40;;
8952;SDS011;4511;50.890;8.054;2024-02-28T03:56:33;239.27;;;28.90;;
8952;SDS011;4511;50.890;8.054;2024-02-28T03:59:00;173.10;;;25.80;;
8952;SDS011;4511;50.890;8.054;2024-02-28T04:01:28;98.83;;;23.77;;
8952;SDS011;4511;50.890;8.054;2024-02-28T04:03:56;249.27;;;28.97;;
8952;SDS011;4511;50.890;8.054;2024-02-28T04:06:24;177.73;;;26.07;;
8952;SDS011;4511;50.890;8.054;2024-02-28T04:08:50;217.17;;;26.23;;
8952;SDS011;4511;50.890;8.054;2024-02-28T04:11:17;249.83;;;27.80;;
8952;SDS011;4511;50.890;8.054;2024-02-28T04:13:44;322.07;;;29.23;;
8952;SDS011;4511;50.890;8.054;2024-02-28T04:16:11;121.90;;;23.97;;
8952;SDS011;4511;50.890;8.054;2024-02-28T04:18:38;505.83;;;36.67;;
8952;SDS011;4511;50.890;8.054;2024-02-28T04:21:05;356.67;;;29.87;;
8952;SDS011;4511;50.890;8.054;2024-02-28T04:23:33;165.27;;;24.43;;
8952;SDS011;4511;50.890;8.054;2024-02-28T04:26:00;184.70;;;25.90;;
8952;SDS011;4511;50.890;8.054;2024-02-28T04:28:26;343.20;;;29.67;;
8952;SDS011;4511;50.890;8.054;2024-02-28T04:30:53;257.57;;;26.77;;
8952;SDS011;4511;50.890;8.054;2024-02-28T04:33:20;194.47;;;26.57;;
8952;SDS011;4511;50.890;8.054;2024-02-28T04:35:47;365.20;;;29.30;;
8952;SDS011;4511;50.890;8.054;2024-02-28T04:38:14;165.37;;;25.10;;
8952;SDS011;4511;50.890;8.054;2024-02-28T04:40:42;271.23;;;29.40;;
8952;SDS011;4511;50.890;8.054;2024-02-28T04:43:09;325.03;;;30.60;;
8952;SDS011;4511;50.890;8.054;2024-02-28T04:45:36;138.07;;;25.20;;
8952;SDS011;4511;50.890;8.054;2024-02-28T04:48:03;354.13;;;30.53;;
8952;SDS011;4511;50.890;8.054;2024-02-28T04:50:30;296.83;;;29.00;;
8952;SDS011;4511;50.890;8.054;2024-02-28T04:52:57;116.07;;;24.97;;
8952;SDS011;4511;50.890;8.054;2024-02-28T04:55:23;113.60;;;24.73;;
8952;SDS011;4511;50.890;8.054;2024-02-28T04:57:51;284.27;;;28.80;;
8952;SDS011;4511;50.890;8.054;2024-02-28T05:00:18;258.67;;;28.17;;
8952;SDS011;4511;50.890;8.054;2024-02-28T05:02:45;160.50;;;26.40;;
8952;SDS011;4511;50.890;8.054;2024-02-28T05:05:12;353.70;;;31.73;;
8952;SDS011;4511;50.890;8.054;2024-02-28T05:07:38;190.97;;;25.70;;
8952;SDS011;4511;50.890;8.054;2024-02-28T05:10:06;173.20;;;25.67;;
8952;SDS011;4511;50.890;8.054;2024-02-28T05:12:33;315.27;;;29.17;;
8952;SDS011;4511;50.890;8.054;2024-02-28T05:15:01;170.77;;;26.17;;
8952;SDS011;4511;50.890;8.054;2024-02-28T05:17:28;345.90;;;29.20;;
8952;SDS011;4511;50.890;8.054;2024-02-28T05:19:55;244.13;;;26.67;;
8952;SDS011;4511;50.890;8.054;2024-02-28T05:22:22;204.47;;;26.10;;
8952;SDS011;4511;50.890;8.054;2024-02-28T05:24:48;444.20;;;30.97;;
8952;SDS011;4511;50.890;8.054;2024-02-28T05:27:15;178.40;;;26.30;;
8952;SDS011;4511;50.890;8.054;2024-02-28T05:29:42;193.90;;;25.10;;
8952;SDS011;4511;50.890;8.054;2024-02-28T05:32:10;148.70;;;23.73;;
8952;SDS011;4511;50.890;8.054;2024-02-28T05:34:37;186.27;;;23.87;;
8952;SDS011;4511;50.890;8.054;2024-02-28T05:37:04;74.03;;;23.10;;
8952;SDS011;4511;50.890;8.054;2024-02-28T05:39:31;319.57;;;28.53;;
8952;SDS011;4511;50.890;8.054;2024-02-28T05:41:58;195.77;;;24.53;;
8952;SDS011;4511;50.890;8.054;2024-02-28T05:44:24;613.03;;;38.77;;
8952;SDS011;4511;50.890;8.054;2024-02-28T05:46:51;270.47;;;26.00;;
8952;SDS011;4511;50.890;8.054;2024-02-28T05:49:19;384.47;;;30.43;;
8952;SDS011;4511;50.890;8.054;2024-02-28T05:51:47;136.90;;;25.27;;
8952;SDS011;4511;50.890;8.054;2024-02-28T05:54:14;155.50;;;25.27;;
8952;SDS011;4511;50.890;8.054;2024-02-28T05:56:41;450.57;;;32.17;;
8952;SDS011;4511;50.890;8.054;2024-02-28T05:59:07;298.13;;;26.33;;
8952;SDS011;4511;50.890;8.054;2024-02-28T06:01:34;117.70;;;23.47;;
8952;SDS011;4511;50.890;8.054;2024-02-28T06:04:01;88.00;;;22.87;;
8952;SDS011;4511;50.890;8.054;2024-02-28T06:06:29;454.33;;;32.83;;
8952;SDS011;4511;50.890;8.054;2024-02-28T06:08:56;425.40;;;32.60;;
8952;SDS011;4511;50.890;8.054;2024-02-28T06:11:23;180.23;;;26.57;;
8952;SDS011;4511;50.890;8.054;2024-02-28T06:13:50;190.53;;;26.83;;
8952;SDS011;4511;50.890;8.054;2024-02-28T06:16:16;387.90;;;30.20;;
8952;SDS011;4511;50.890;8.054;2024-02-28T06:18:43;131.03;;;24.60;;
8952;SDS011;4511;50.890;8.054;2024-02-28T06:21:10;202.13;;;25.67;;
8952;SDS011;4511;50.890;8.054;2024-02-28T06:23:38;185.97;;;24.37;;
8952;SDS011;4511;50.890;8.054;2024-02-28T06:26:05;480.67;;;33.23;;
8952;SDS011;4511;50.890;8.054;2024-02-28T06:28:32;187.33;;;24.60;;
8952;SDS011;4511;50.890;8.054;2024-02-28T06:30:59;162.03;;;24.67;;
8952;SDS011;4511;50.890;8.054;2024-02-28T06:33:25;129.50;;;23.07;;
8952;SDS011;4511;50.890;8.054;2024-02-28T06:35:52;444.47;;;30.63;;
8952;SDS011;4511;50.890;8.054;2024-02-28T06:38:19;202.30;;;25.27;;
8952;SDS011;4511;50.890;8.054;2024-02-28T06:40:47;114.53;;;21.60;;
8952;SDS011;4511;50.890;8.054;2024-02-28T06:43:13;116.13;;;23.10;;
8952;SDS011;4511;50.890;8.054;2024-02-28T06:45:41;389.27;;;30.90;;
8952;SDS011;4511;50.890;8.054;2024-02-28T06:48:07;465.70;;;32.53;;
8952;SDS011;4511;50.890;8.054;2024-02-28T06:50:34;408.63;;;33.00;;
8952;SDS011;4511;50.890;8.054;2024-02-28T06:53:01;126.37;;;23.30;;
8952;SDS011;4511;50.890;8.054;2024-02-28T06:55:28;330.03;;;26.93;;
8952;SDS011;4511;50.890;8.054;2024-02-28T06:57:57;204.50;;;24.73;;
8952;SDS011;4511;50.890;8.054;2024-02-28T07:00:23;257.50;;;27.10;;
8952;SDS011;4511;50.890;8.054;2024-02-28T07:02:50;376.00;;;28.33;;
8952;SDS011;4511;50.890;8.054;2024-02-28T07:05:18;613.53;;;37.07;;
8952;SDS011;4511;50.890;8.054;2024-02-28T07:07:45;408.13;;;32.73;;
8952;SDS011;4511;50.890;8.054;2024-02-28T07:10:11;345.90;;;28.47;;
8952;SDS011;4511;50.890;8.054;2024-02-28T07:12:38;153.20;;;25.53;;
8952;SDS011;4511;50.890;8.054;2024-02-28T07:15:07;311.40;;;28.47;;
8952;SDS011;4511;50.890;8.054;2024-02-28T07:17:33;161.40;;;24.87;;
8952;SDS011;4511;50.890;8.054;2024-02-28T07:20:00;99.87;;;22.33;;
8952;SDS011;4511;50.890;8.054;2024-02-28T07:22:27;325.67;;;31.00;;
8952;SDS011;4511;50.890;8.054;2024-02-28T07:24:54;75.37;;;21.10;;
8952;SDS011;4511;50.890;8.054;2024-02-28T07:27:21;218.13;;;25.13;;
8952;SDS011;4511;50.890;8.054;2024-02-28T07:29:48;220.83;;;24.97;;
8952;SDS011;4511;50.890;8.054;2024-02-28T07:32:17;577.70;;;36.43;;
8952;SDS011;4511;50.890;8.054;2024-02-28T07:34:43;134.47;;;22.47;;
8952;SDS011;4511;50.890;8.054;2024-02-28T07:37:10;168.67;;;23.77;;
8952;SDS011;4511;50.890;8.054;2024-02-28T07:39:37;76.67;;;22.10;;
8952;SDS011;4511;50.890;8.054;2024-02-28T07:42:04;439.53;;;29.47;;
8952;SDS011;4511;50.890;8.054;2024-02-28T07:44:31;271.47;;;27.63;;
8952;SDS011;4511;50.890;8.054;2024-02-28T07:46:57;266.17;;;24.87;;
8952;SDS011;4511;50.890;8.054;2024-02-28T07:49:26;108.57;;;22.97;;
8952;SDS011;4511;50.890;8.054;2024-02-28T07:51:52;188.07;;;21.87;;
8952;SDS011;4511;50.890;8.054;2024-02-28T07:54:19;82.47;;;21.00;;
8952;SDS011;4511;50.890;8.054;2024-02-28T07:56:46;41.57;;;20.00;;
8952;SDS011;4511;50.890;8.054;2024-02-28T07:59:13;216.20;;;25.20;;
8952;SDS011;4511;50.890;8.054;2024-02-28T08:01:39;66.27;;;21.10;;
8952;SDS011;4511;50.890;8.054;2024-02-28T08:04:06;77.63;;;20.30;;
8952;SDS011;4511;50.890;8.054;2024-02-28T08:06:34;72.70;;;21.27;;
8952;SDS011;4511;50.890;8.054;2024-02-28T08:09:01;157.10;;;22.13;;
8952;SDS011;4511;50.890;8.054;2024-02-28T08:11:29;64.20;;;20.57;;
8952;SDS011;4511;50.890;8.054;2024-02-28T08:13:56;200.90;;;24.40;;
8952;SDS011;4511;50.890;8.054;2024-02-28T08:16:22;51.33;;;20.50;;
8952;SDS011;4511;50.890;8.054;2024-02-28T08:18:49;168.47;;;23.17;;
8952;SDS011;4511;50.890;8.054;2024-02-28T08:21:16;198.80;;;23.07;;
8952;SDS011;4511;50.890;8.054;2024-02-28T08:23:44;68.33;;;19.90;;
8952;SDS011;4511;50.890;8.054;2024-02-28T08:26:11;50.00;;;19.47;;
8952;SDS011;4511;50.890;8.054;2024-02-28T08:28:37;65.07;;;19.77;;
8952;SDS011;4511;50.890;8.054;2024-02-28T08:31:04;124.93;;;22.00;;
8952;SDS011;4511;50.890;8.054;2024-02-28T08:33:31;143.07;;;22.07;;
8952;SDS011;4511;50.890;8.054;2024-02-28T08:35:58;148.03;;;23.20;;
8952;SDS011;4511;50.890;8.054;2024-02-28T08:38:24;64.30;;;20.63;;
8952;SDS011;4511;50.890;8.054;2024-02-28T08:40:52;72.33;;;21.57;;
8952;SDS011;4511;50.890;8.054;2024-02-28T08:43:19;63.87;;;21.53;;
8952;SDS011;4511;50.890;8.054;2024-02-28T08:45:46;41.33;;;21.10;;
8952;SDS011;4511;50.890;8.054;2024-02-28T08:48:15;43.47;;;20.33;;
8952;SDS011;4511;50.890;8.054;2024-02-28T08:50:42;50.53;;;21.47;;
8952;SDS011;4511;50.890;8.054;2024-02-28T08:53:08;46.77;;;20.73;;
8952;SDS011;4511;50.890;8.054;2024-02-28T08:55:35;40.17;;;20.83;;
8952;SDS011;4511;50.890;8.054;2024-02-28T08:58:03;91.93;;;22.70;;
8952;SDS011;4511;50.890;8.054;2024-02-28T09:00:30;76.87;;;21.20;;
8952;SDS011;4511;50.890;8.054;2024-02-28T09:02:57;87.53;;;21.27;;
8952;SDS011;4511;50.890;8.054;2024-02-28T09:05:23;54.77;;;22.43;;
8952;SDS011;4511;50.890;8.054;2024-02-28T09:07:50;47.97;;;21.67;;
8952;SDS011;4511;50.890;8.054;2024-02-28T09:10:19;40.47;;;20.90;;
8952;SDS011;4511;50.890;8.054;2024-02-28T09:12:49;38.47;;;20.33;;
8952;SDS011;4511;50.890;8.054;2024-02-28T09:15:17;44.30;;;21.43;;
8952;SDS011;4511;50.890;8.054;2024-02-28T09:17:44;43.33;;;21.20;;
8952;SDS011;4511;50.890;8.054;2024-02-28T09:20:11;43.00;;;21.63;;
8952;SDS011;4511;50.890;8.054;2024-02-28T09:22:38;37.50;;;20.87;;
8952;SDS011;4511;50.890;8.054;2024-02-28T09:25:05;39.20;;;21.73;;
8952;SDS011;4511;50.890;8.054;2024-02-28T09:27:33;39.40;;;22.23;;
8952;SDS011;4511;50.890;8.054;2024-02-28T09:30:00;38.27;;;20.43;;
8952;SDS011;4511;50.890;8.054;2024-02-28T09:32:29;39.50;;;21.83;;
8952;SDS011;4511;50.890;8.054;2024-02-28T09:34:55;40.30;;;22.17;;
8952;SDS011;4511;50.890;8.054;2024-02-28T09:37:22;38.33;;;21.97;;
8952;SDS011;4511;50.890;8.054;2024-02-28T09:39:50;39.33;;;21.50;;
8952;SDS011;4511;50.890;8.054;2024-02-28T09:42:17;39.03;;;21.93;;
8952;SDS011;4511;50.890;8.054;2024-02-28T09:44:45;37.73;;;21.20;;
8952;SDS011;4511;50.890;8.054;2024-02-28T09:47:12;35.13;;;20.97;;
8952;SDS011;4511;50.890;8.054;2024-02-28T09:49:41;45.33;;;23.23;;
8952;SDS011;4511;50.890;8.054;2024-02-28T09:52:08;42.07;;;22.77;;
8952;SDS011;4511;50.890;8.054;2024-02-28T09:54:35;37.93;;;21.00;;
8952;SDS011;4511;50.890;8.054;2024-02-28T09:57:02;36.77;;;20.93;;
8952;SDS011;4511;50.890;8.054;2024-02-28T09:59:30;38.47;;;22.53;;
8952;SDS011;4511;50.890;8.054;2024-02-28T10:01:57;38.30;;;21.30;;
8952;SDS011;4511;50.890;8.054;2024-02-28T10:04:25;39.33;;;20.90;;
8952;SDS011;4511;50.890;8.054;2024-02-28T10:06:55;32.93;;;20.07;;
8952;SDS011;4511;50.890;8.054;2024-02-28T10:09:22;37.97;;;20.70;;
8952;SDS011;4511;50.890;8.054;2024-02-28T10:11:49;32.20;;;20.30;;
8952;SDS011;4511;50.890;8.054;2024-02-28T10:14:18;34.87;;;19.50;;
8952;SDS011;4511;50.890;8.054;2024-02-28T10:16:45;27.33;;;16.80;;
8952;SDS011;4511;50.890;8.054;2024-02-28T10:19:12;30.33;;;18.60;;
8952;SDS011;4511;50.890;8.054;2024-02-28T10:21:39;28.63;;;18.00;;
8952;SDS011;4511;50.890;8.054;2024-02-28T10:24:07;26.83;;;17.17;;
8952;SDS011;4511;50.890;8.054;2024-02-28T10:26:41;23.43;;;16.47;;
8952;SDS011;4511;50.890;8.054;2024-02-28T10:29:08;28.47;;;17.87;;
8952;SDS011;4511;50.890;8.054;2024-02-28T10:31:35;29.27;;;18.43;;
8952;SDS011;4511;50.890;8.054;2024-02-28T10:34:02;29.67;;;18.53;;
8952;SDS011;4511;50.890;8.054;2024-02-28T10:36:31;31.97;;;19.13;;
8952;SDS011;4511;50.890;8.054;2024-02-28T10:38:59;26.47;;;18.17;;
8952;SDS011;4511;50.890;8.054;2024-02-28T10:41:28;29.37;;;18.40;;
8952;SDS011;4511;50.890;8.054;2024-02-28T10:43:57;34.57;;;18.33;;
8952;SDS011;4511;50.890;8.054;2024-02-28T10:46:25;28.57;;;18.93;;
8952;SDS011;4511;50.890;8.054;2024-02-28T10:48:52;29.40;;;18.57;;
8952;SDS011;4511;50.890;8.054;2024-02-28T10:51:20;33.47;;;19.07;;
8952;SDS011;4511;50.890;8.054;2024-02-28T10:53:50;26.07;;;18.03;;
8952;SDS011;4511;50.890;8.054;2024-02-28T10:56:30;30.33;;;19.27;;
8952;SDS011;4511;50.890;8.054;2024-02-28T10:58:57;29.77;;;19.33;;
8952;SDS011;4511;50.890;8.054;2024-02-28T11:01:25;29.50;;;19.20;;
8952;SDS011;4511;50.890;8.054;2024-02-28T11:03:52;31.50;;;20.07;;
8952;SDS011;4511;50.890;8.054;2024-02-28T11:06:21;32.20;;;19.63;;
8952;SDS011;4511;50.890;8.054;2024-02-28T11:08:48;32.57;;;21.03;;
8952;SDS011;4511;50.890;8.054;2024-02-28T11:11:18;29.83;;;19.53;;
8952;SDS011;4511;50.890;8.054;2024-02-28T11:13:57;31.27;;;19.17;;
8952;SDS011;4511;50.890;8.054;2024-02-28T11:16:26;30.20;;;18.50;;
8952;SDS011;4511;50.890;8.054;2024-02-28T11:18:54;30.57;;;19.43;;
8952;SDS011;4511;50.890;8.054;2024-02-28T11:21:25;31.27;;;19.80;;
8952;SDS011;4511;50.890;8.054;2024-02-28T11:23:52;26.57;;;18.23;;
8952;SDS011;4511;50.890;8.054;2024-02-28T11:26:23;29.30;;;19.47;;
8952;SDS011;4511;50.890;8.054;2024-02-28T11:28:50;29.10;;;19.20;;
8952;SDS011;4511;50.890;8.054;2024-02-28T11:31:18;30.20;;;19.83;;
8952;SDS011;4511;50.890;8.054;2024-02-28T11:33:45;28.27;;;18.90;;
8952;SDS011;4511;50.890;8.054;2024-02-28T11:36:12;31.43;;;20.10;;
8952;SDS011;4511;50.890;8.054;2024-02-28T11:38:39;30.37;;;20.70;;
8952;SDS011;4511;50.890;8.054;2024-02-28T11:41:06;29.63;;;19.30;;
8952;SDS011;4511;50.890;8.054;2024-02-28T11:43:33;29.83;;;19.30;;
8952;SDS011;4511;50.890;8.054;2024-02-28T11:46:00;29.07;;;19.50;;
8952;SDS011;4511;50.890;8.054;2024-02-28T11:48:30;29.50;;;19.93;;
8952;SDS011;4511;50.890;8.054;2024-02-28T11:50:58;30.20;;;19.20;;
8952;SDS011;4511;50.890;8.054;2024-02-28T11:53:24;29.70;;;19.80;;
8952;SDS011;4511;50.890;8.054;2024-02-28T11:55:52;30.53;;;19.67;;
8952;SDS011;4511;50.890;8.054;2024-02-28T11:58:20;28.90;;;18.87;;
8952;SDS011;4511;50.890;8.054;2024-02-28T12:00:47;29.80;;;20.10;;
8952;SDS011;4511;50.890;8.054;2024-02-28T12:03:14;25.13;;;17.47;;
8952;SDS011;4511;50.890;8.054;2024-02-28T12:05:47;26.67;;;18.13;;
8952;SDS011;4511;50.890;8.054;2024-02-28T12:08:13;28.23;;;18.50;;
8952;SDS011;4511;50.890;8.054;2024-02-28T12:10:40;24.50;;;17.03;;
8952;SDS011;4511;50.890;8.054;2024-02-28T12:13:07;26.37;;;17.83;;
8952;SDS011;4511;50.890;8.054;2024-02-28T12:15:34;27.83;;;19.43;;
8952;SDS011;4511;50.890;8.054;2024-02-28T12:18:06;27.93;;;19.03;;
8952;SDS011;4511;50.890;8.054;2024-02-28T12:20:34;32.40;;;20.23;;
8952;SDS011;4511;50.890;8.054;2024-02-28T12:23:03;29.60;;;19.47;;
8952;SDS011;4511;50.890;8.054;2024-02-28T12:25:30;27.33;;;18.20;;
8952;SDS011;4511;50.890;8.054;2024-02-28T12:27:57;26.60;;;18.00;;
8952;SDS011;4511;50.890;8.054;2024-02-28T12:30:23;23.70;;;17.10;;
8952;SDS011;4511;50.890;8.054;2024-02-28T12:32:50;23.03;;;17.03;;
8952;SDS011;4511;50.890;8.054;2024-02-28T12:35:17;24.93;;;17.80;;
8952;SDS011;4511;50.890;8.054;2024-02-28T12:37:43;22.93;;;16.83;;
8952;SDS011;4511;50.890;8.054;2024-02-28T12:40:11;24.00;;;17.77;;
8952;SDS011;4511;50.890;8.054;2024-02-28T12:42:40;26.63;;;17.77;;
8952;SDS011;4511;50.890;8.054;2024-02-28T12:45:07;24.33;;;17.67;;
8952;SDS011;4511;50.890;8.054;2024-02-28T12:47:34;23.47;;;16.77;;
8952;SDS011;4511;50.890;8.054;2024-02-28T12:50:02;23.17;;;17.23;;
8952;SDS011;4511;50.890;8.054;2024-02-28T12:52:29;23.77;;;16.40;;
8952;SDS011;4511;50.890;8.054;2024-02-28T12:54:56;22.67;;;16.53;;
8952;SDS011;4511;50.890;8.054;2024-02-28T12:57:24;25.43;;;17.53;;
8952;SDS011;4511;50.890;8.054;2024-02-28T12:59:51;24.30;;;17.03;;
8952;SDS011;4511;50.890;8.054;2024-02-28T13:02:18;19.63;;;14.17;;
8952;SDS011;4511;50.890;8.054;2024-02-28T13:04:45;20.27;;;14.07;;
8952;SDS011;4511;50.890;8.054;2024-02-28T13:07:12;22.40;;;14.37;;
8952;SDS011;4511;50.890;8.054;2024-02-28T13:09:38;18.87;;;14.10;;
8952;SDS011;4511;50.890;8.054;2024-02-28T13:12:05;19.57;;;14.43;;
8952;SDS011;4511;50.890;8.054;2024-02-28T13:14:35;20.00;;;14.70;;
8952;SDS011;4511;50.890;8.054;2024-02-28T13:17:01;18.40;;;13.97;;
8952;SDS011;4511;50.890;8.054;2024-02-28T13:19:29;18.63;;;13.80;;
8952;SDS011;4511;50.890;8.054;2024-02-28T13:21:55;20.77;;;14.50;;
8952;SDS011;4511;50.890;8.054;2024-02-28T13:24:22;16.83;;;12.33;;
8952;SDS011;4511;50.890;8.054;2024-02-28T13:26:49;18.70;;;14.13;;
8952;SDS011;4511;50.890;8.054;2024-02-28T13:29:15;22.07;;;14.43;;
8952;SDS011;4511;50.890;8.054;2024-02-28T13:31:43;18.70;;;13.67;;
8952;SDS011;4511;50.890;8.054;2024-02-28T13:34:10;18.33;;;12.40;;
8952;SDS011;4511;50.890;8.054;2024-02-28T13:36:37;16.20;;;12.90;;
8952;SDS011;4511;50.890;8.054;2024-02-28T13:39:07;15.57;;;12.10;;
8952;SDS011;4511;50.890;8.054;2024-02-28T13:41:36;17.63;;;12.83;;
8952;SDS011;4511;50.890;8.054;2024-02-28T13:44:03;16.87;;;12.40;;
8952;SDS011;4511;50.890;8.054;2024-02-28T13:46:30;15.90;;;12.47;;
8952;SDS011;4511;50.890;8.054;2024-02-28T13:48:58;18.67;;;11.77;;
8952;SDS011;4511;50.890;8.054;2024-02-28T13:51:25;15.10;;;11.60;;
8952;SDS011;4511;50.890;8.054;2024-02-28T13:53:51;13.40;;;10.63;;
8952;SDS011;4511;50.890;8.054;2024-02-28T13:56:19;14.97;;;11.73;;
8952;SDS011;4511;50.890;8.054;2024-02-28T13:58:46;15.50;;;12.00;;
8952;SDS011;4511;50.890;8.054;2024-02-28T14:01:12;17.33;;;10.93;;
8952;SDS011;4511;50.890;8.054;2024-02-28T14:03:39;12.93;;;10.80;;
8952;SDS011;4511;50.890;8.054;2024-02-28T14:06:07;15.00;;;10.07;;
8952;SDS011;4511;50.890;8.054;2024-02-28T14:08:34;13.43;;;9.97;;
8952;SDS011;4511;50.890;8.054;2024-02-28T14:11:01;12.70;;;9.17;;
8952;SDS011;4511;50.890;8.054;2024-02-28T14:13:28;13.13;;;9.40;;
8952;SDS011;4511;50.890;8.054;2024-02-28T14:15:55;12.67;;;9.53;;
8952;SDS011;4511;50.890;8.054;2024-02-28T14:18:21;13.37;;;9.67;;
8952;SDS011;4511;50.890;8.054;2024-02-28T14:20:48;15.37;;;11.10;;
8952;SDS011;4511;50.890;8.054;2024-02-28T14:23:17;15.13;;;10.50;;
8952;SDS011;4511;50.890;8.054;2024-02-28T14:25:46;12.50;;;9.40;;
8952;SDS011;4511;50.890;8.054;2024-02-28T14:28:12;12.80;;;9.67;;
8952;SDS011;4511;50.890;8.054;2024-02-28T14:30:39;15.37;;;9.90;;
8952;SDS011;4511;50.890;8.054;2024-02-28T14:33:07;13.43;;;10.63;;
8952;SDS011;4511;50.890;8.054;2024-02-28T14:35:34;14.07;;;9.57;;
8952;SDS011;4511;50.890;8.054;2024-02-28T14:38:04;13.53;;;9.27;;
8952;SDS011;4511;50.890;8.054;2024-02-28T14:40:33;12.80;;;7.90;;
8952;SDS011;4511;50.890;8.054;2024-02-28T14:42:59;13.07;;;9.60;;